« Back
NWS Peachtree City, Ga » Text Product » ATL Terminal Aerodrome Forecast


Printer-friendly Version
Current Version              Previous Versions:   1  2  3  4  5  6  7  8  9  

Terminal Aerodrome Forecast

768
FTUS42 KFFC 310746 AAA
TAFATL
TAF AMD
KATL 310746Z 3108/0112 34006KT P6SM SCT250
     FM311000 02003KT P6SM SCT250
     FM311800 20004KT P6SM BKN200
     FM010000 15003KT P6SM OVC150=



USA.gov is the U.S. government's official web portal to all federal, state and local government web resources and services.